sensor_id;sensor_type;location;lat;lon;timestamp;temperature;humidity
43185;DHT22;28803;52.308;19.096;2023-04-01T00:01:49;8.60;99.90
43185;DHT22;28803;52.308;19.096;2023-04-01T00:04:16;8.60;99.90
43185;DHT22;28803;52.308;19.096;2023-04-01T00:06:43;8.60;99.90
43185;DHT22;28803;52.308;19.096;2023-04-01T00:09:11;8.60;99.90
43185;DHT22;28803;52.308;19.096;2023-04-01T00:11:38;8.60;99.90
43185;DHT22;28803;52.308;19.096;2023-04-01T00:14:07;8.60;99.90
43185;DHT22;28803;52.308;19.096;2023-04-01T00:16:35;8.60;99.90
43185;DHT22;28803;52.308;19.096;2023-04-01T00:19:02;8.60;99.90
43185;DHT22;28803;52.308;19.096;2023-04-01T00:21:30;8.60;99.90
43185;DHT22;28803;52.308;19.096;2023-04-01T00:23:57;8.60;99.90
43185;DHT22;28803;52.308;19.096;2023-04-01T00:26:24;8.70;99.90
43185;DHT22;28803;52.308;19.096;2023-04-01T00:28:52;8.70;99.90
43185;DHT22;28803;52.308;19.096;2023-04-01T00:31:19;8.60;99.90
43185;DHT22;28803;52.308;19.096;2023-04-01T00:33:47;8.60;99.90
43185;DHT22;28803;52.308;19.096;2023-04-01T00:36:18;8.60;99.90
43185;DHT22;28803;52.308;19.096;2023-04-01T00:38:46;8.60;99.90
43185;DHT22;28803;52.308;19.096;2023-04-01T00:41:14;8.60;99.90
43185;DHT22;28803;52.308;19.096;2023-04-01T00:43:45;8.60;99.90
43185;DHT22;28803;52.308;19.096;2023-04-01T00:46:13;8.60;99.90
43185;DHT22;28803;52.308;19.096;2023-04-01T00:48:45;8.60;99.90
43185;DHT22;28803;52.308;19.096;2023-04-01T00:51:16;8.60;99.90
43185;DHT22;28803;52.308;19.096;2023-04-01T00:53:48;8.50;99.90
43185;DHT22;28803;52.308;19.096;2023-04-01T00:56:18;8.50;99.90
43185;DHT22;28803;52.308;19.096;2023-04-01T00:58:51;8.50;99.90
43185;DHT22;28803;52.308;19.096;2023-04-01T01:01:23;8.50;99.90
43185;DHT22;28803;52.308;19.096;2023-04-01T01:03:51;8.50;99.90
43185;DHT22;28803;52.308;19.096;2023-04-01T01:12:18;8.50;99.90
43185;DHT22;28803;52.308;19.096;2023-04-01T01:14:55;8.50;99.90
43185;DHT22;28803;52.308;19.096;2023-04-01T01:36:33;8.20;99.90
43185;DHT22;28803;52.308;19.096;2023-04-01T01:39:05;8.20;99.90
43185;DHT22;28803;52.308;19.096;2023-04-01T01:41:36;8.10;99.90
43185;DHT22;28803;52.308;19.096;2023-04-01T01:44:06;8.20;99.90
43185;DHT22;28803;52.308;19.096;2023-04-01T01:46:35;8.10;99.90
43185;DHT22;28803;52.308;19.096;2023-04-01T01:49:04;8.10;99.90
43185;DHT22;28803;52.308;19.096;2023-04-01T01:51:33;8.10;99.90
43185;DHT22;28803;52.308;19.096;2023-04-01T01:54:01;8.10;99.90
43185;DHT22;28803;52.308;19.096;2023-04-01T01:56:29;8.10;99.90
43185;DHT22;28803;52.308;19.096;2023-04-01T01:59:03;8.00;99.90
43185;DHT22;28803;52.308;19.096;2023-04-01T02:01:35;8.10;99.90
43185;DHT22;28803;52.308;19.096;2023-04-01T02:04:05;8.00;99.90
43185;DHT22;28803;52.308;19.096;2023-04-01T02:06:37;8.10;99.90
43185;DHT22;28803;52.308;19.096;2023-04-01T02:09:10;8.10;99.90
43185;DHT22;28803;52.308;19.096;2023-04-01T02:11:56;8.10;99.90
43185;DHT22;28803;52.308;19.096;2023-04-01T02:14:59;8.10;99.90
43185;DHT22;28803;52.308;19.096;2023-04-01T02:17:27;8.10;99.90
43185;DHT22;28803;52.308;19.096;2023-04-01T02:22:34;8.10;99.90
43185;DHT22;28803;52.308;19.096;2023-04-01T02:25:08;8.10;99.90
43185;DHT22;28803;52.308;19.096;2023-04-01T02:27:35;8.10;99.90
43185;DHT22;28803;52.308;19.096;2023-04-01T02:30:03;8.10;99.90
43185;DHT22;28803;52.308;19.096;2023-04-01T02:32:31;8.10;99.90
43185;DHT22;28803;52.308;19.096;2023-04-01T02:35:00;8.00;99.90
43185;DHT22;28803;52.308;19.096;2023-04-01T02:37:32;8.00;99.90
43185;DHT22;28803;52.308;19.096;2023-04-01T02:40:04;8.00;99.90
43185;DHT22;28803;52.308;19.096;2023-04-01T02:42:33;8.00;99.90
43185;DHT22;28803;52.308;19.096;2023-04-01T02:45:02;8.00;99.90
43185;DHT22;28803;52.308;19.096;2023-04-01T02:47:29;8.00;99.90
43185;DHT22;28803;52.308;19.096;2023-04-01T02:49:57;8.00;99.90
43185;DHT22;28803;52.308;19.096;2023-04-01T02:52:25;8.00;99.90
43185;DHT22;28803;52.308;19.096;2023-04-01T02:54:55;8.00;99.90
43185;DHT22;28803;52.308;19.096;2023-04-01T02:57:23;7.90;99.90
43185;DHT22;28803;52.308;19.096;2023-04-01T02:59:51;7.90;99.90
43185;DHT22;28803;52.308;19.096;2023-04-01T03:02:18;7.90;99.90
43185;DHT22;28803;52.308;19.096;2023-04-01T03:04:45;7.90;99.90
43185;DHT22;28803;52.308;19.096;2023-04-01T03:07:12;7.90;99.90
43185;DHT22;28803;52.308;19.096;2023-04-01T03:09:40;7.90;99.90
43185;DHT22;28803;52.308;19.096;2023-04-01T03:12:07;7.90;99.90
43185;DHT22;28803;52.308;19.096;2023-04-01T03:14:35;7.90;99.90
43185;DHT22;28803;52.308;19.096;2023-04-01T03:17:02;7.90;99.90
43185;DHT22;28803;52.308;19.096;2023-04-01T03:19:29;7.90;99.90
43185;DHT22;28803;52.308;19.096;2023-04-01T03:21:56;7.90;99.90
43185;DHT22;28803;52.308;19.096;2023-04-01T03:24:23;8.00;99.90
43185;DHT22;28803;52.308;19.096;2023-04-01T03:26:50;8.00;99.90
43185;DHT22;28803;52.308;19.096;2023-04-01T03:29:18;8.00;99.90
43185;DHT22;28803;52.308;19.096;2023-04-01T03:31:45;8.00;99.90
43185;DHT22;28803;52.308;19.096;2023-04-01T03:34:12;8.00;99.90
43185;DHT22;28803;52.308;19.096;2023-04-01T03:36:39;8.00;99.90
43185;DHT22;28803;52.308;19.096;2023-04-01T03:39:06;8.00;99.90
43185;DHT22;28803;52.308;19.096;2023-04-01T03:41:36;8.00;99.90
43185;DHT22;28803;52.308;19.096;2023-04-01T03:44:05;8.00;99.90
43185;DHT22;28803;52.308;19.096;2023-04-01T03:46:32;8.00;99.90
43185;DHT22;28803;52.308;19.096;2023-04-01T03:49:00;8.00;99.90
43185;DHT22;28803;52.308;19.096;2023-04-01T03:53:55;8.00;99.90
43185;DHT22;28803;52.308;19.096;2023-04-01T03:56:22;8.00;99.90
43185;DHT22;28803;52.308;19.096;2023-04-01T03:58:49;8.00;99.90
43185;DHT22;28803;52.308;19.096;2023-04-01T04:01:21;8.00;99.90
43185;DHT22;28803;52.308;19.096;2023-04-01T04:03:49;8.00;99.90
43185;DHT22;28803;52.308;19.096;2023-04-01T04:06:18;8.00;99.90
43185;DHT22;28803;52.308;19.096;2023-04-01T04:08:46;8.00;99.90
43185;DHT22;28803;52.308;19.096;2023-04-01T04:11:13;8.00;99.90
43185;DHT22;28803;52.308;19.096;2023-04-01T04:13:41;8.00;99.90
43185;DHT22;28803;52.308;19.096;2023-04-01T04:16:09;8.00;99.90
43185;DHT22;28803;52.308;19.096;2023-04-01T04:18:37;7.90;99.90
43185;DHT22;28803;52.308;19.096;2023-04-01T04:21:05;7.90;99.90
43185;DHT22;28803;52.308;19.096;2023-04-01T04:23:33;7.90;99.90
43185;DHT22;28803;52.308;19.096;2023-04-01T04:26:06;7.90;99.90
43185;DHT22;28803;52.308;19.096;2023-04-01T04:28:34;7.90;99.90
43185;DHT22;28803;52.308;19.096;2023-04-01T04:31:02;8.00;99.90
43185;DHT22;28803;52.308;19.096;2023-04-01T04:33:29;7.90;99.90
43185;DHT22;28803;52.308;19.096;2023-04-01T04:35:58;7.90;99.90
43185;DHT22;28803;52.308;19.096;2023-04-01T04:38:26;7.90;99.90
43185;DHT22;28803;52.308;19.096;2023-04-01T04:40:53;8.00;99.90
43185;DHT22;28803;52.308;19.096;2023-04-01T04:43:21;7.90;99.90
43185;DHT22;28803;52.308;19.096;2023-04-01T04:45:48;7.90;99.90
43185;DHT22;28803;52.308;19.096;2023-04-01T04:48:16;8.00;99.90
43185;DHT22;28803;52.308;19.096;2023-04-01T04:50:47;8.00;99.90
43185;DHT22;28803;52.308;19.096;2023-04-01T04:53:17;8.00;99.90
43185;DHT22;28803;52.308;19.096;2023-04-01T04:55:46;8.00;99.90
43185;DHT22;28803;52.308;19.096;2023-04-01T04:58:14;8.00;99.90
43185;DHT22;28803;52.308;19.096;2023-04-01T05:00:42;8.00;99.90
43185;DHT22;28803;52.308;19.096;2023-04-01T05:03:10;8.00;99.90
43185;DHT22;28803;52.308;19.096;2023-04-01T05:05:37;8.00;99.90
43185;DHT22;28803;52.308;19.096;2023-04-01T05:08:05;8.00;99.90
43185;DHT22;28803;52.308;19.096;2023-04-01T05:10:33;8.00;99.90
43185;DHT22;28803;52.308;19.096;2023-04-01T05:13:00;8.00;99.90
43185;DHT22;28803;52.308;19.096;2023-04-01T05:15:27;8.00;99.90
43185;DHT22;28803;52.308;19.096;2023-04-01T05:17:54;8.00;99.90
43185;DHT22;28803;52.308;19.096;2023-04-01T05:20:21;8.00;99.90
43185;DHT22;28803;52.308;19.096;2023-04-01T05:22:49;8.00;99.90
43185;DHT22;28803;52.308;19.096;2023-04-01T05:25:16;8.00;99.90
43185;DHT22;28803;52.308;19.096;2023-04-01T05:27:43;8.00;99.90
43185;DHT22;28803;52.308;19.096;2023-04-01T05:30:11;8.00;99.90
43185;DHT22;28803;52.308;19.096;2023-04-01T05:32:38;8.10;99.90
43185;DHT22;28803;52.308;19.096;2023-04-01T05:35:06;8.10;99.90
43185;DHT22;28803;52.308;19.096;2023-04-01T05:37:34;8.00;99.90
43185;DHT22;28803;52.308;19.096;2023-04-01T05:40:03;8.10;99.90
43185;DHT22;28803;52.308;19.096;2023-04-01T05:42:31;8.10;99.90
43185;DHT22;28803;52.308;19.096;2023-04-01T05:44:58;8.10;99.90
43185;DHT22;28803;52.308;19.096;2023-04-01T05:47:26;8.10;99.90
43185;DHT22;28803;52.308;19.096;2023-04-01T05:49:53;8.20;99.90
43185;DHT22;28803;52.308;19.096;2023-04-01T05:52:20;8.20;99.90
43185;DHT22;28803;52.308;19.096;2023-04-01T05:54:47;8.20;99.90
43185;DHT22;28803;52.308;19.096;2023-04-01T05:57:14;8.20;99.90
43185;DHT22;28803;52.308;19.096;2023-04-01T05:59:42;8.20;99.90
43185;DHT22;28803;52.308;19.096;2023-04-01T06:02:09;8.30;99.90
43185;DHT22;28803;52.308;19.096;2023-04-01T06:04:39;8.30;99.90
43185;DHT22;28803;52.308;19.096;2023-04-01T06:07:15;8.30;99.90
43185;DHT22;28803;52.308;19.096;2023-04-01T06:09:43;8.40;99.90
43185;DHT22;28803;52.308;19.096;2023-04-01T06:45:50;9.00;99.90
43185;DHT22;28803;52.308;19.096;2023-04-01T06:48:41;9.00;99.90
43185;DHT22;28803;52.308;19.096;2023-04-01T06:54:13;9.10;99.90
43185;DHT22;28803;52.308;19.096;2023-04-01T06:56:45;9.10;99.90
43185;DHT22;28803;52.308;19.096;2023-04-01T06:59:22;9.10;99.90
43185;DHT22;28803;52.308;19.096;2023-04-01T07:02:21;9.20;99.90
43185;DHT22;28803;52.308;19.096;2023-04-01T07:04:48;9.10;99.90
43185;DHT22;28803;52.308;19.096;2023-04-01T07:07:38;9.10;99.90
43185;DHT22;28803;52.308;19.096;2023-04-01T07:10:23;9.10;99.90
43185;DHT22;28803;52.308;19.096;2023-04-01T07:12:55;9.10;99.90
43185;DHT22;28803;52.308;19.096;2023-04-01T07:15:31;9.10;99.90
43185;DHT22;28803;52.308;19.096;2023-04-01T07:18:13;9.10;99.90
43185;DHT22;28803;52.308;19.096;2023-04-01T07:20:43;9.10;99.90
43185;DHT22;28803;52.308;19.096;2023-04-01T07:23:40;9.10;99.90
43185;DHT22;28803;52.308;19.096;2023-04-01T07:26:35;9.10;99.90
43185;DHT22;28803;52.308;19.096;2023-04-01T07:29:09;9.10;99.90
43185;DHT22;28803;52.308;19.096;2023-04-01T07:41:04;9.20;99.90
43185;DHT22;28803;52.308;19.096;2023-04-01T07:52:23;9.40;99.90
43185;DHT22;28803;52.308;19.096;2023-04-01T07:55:12;9.40;99.90
43185;DHT22;28803;52.308;19.096;2023-04-01T08:00:57;9.40;99.90
43185;DHT22;28803;52.308;19.096;2023-04-01T08:06:37;9.30;99.90
43185;DHT22;28803;52.308;19.096;2023-04-01T08:18:00;9.50;99.90
43185;DHT22;28803;52.308;19.096;2023-04-01T08:21:02;9.60;99.90
43185;DHT22;28803;52.308;19.096;2023-04-01T08:23:33;9.70;99.90
43185;DHT22;28803;52.308;19.096;2023-04-01T08:28:41;9.90;99.90
43185;DHT22;28803;52.308;19.096;2023-04-01T08:33:42;9.80;99.90
43185;DHT22;28803;52.308;19.096;2023-04-01T08:39:05;9.60;99.90
43185;DHT22;28803;52.308;19.096;2023-04-01T08:55:51;9.80;99.90
43185;DHT22;28803;52.308;19.096;2023-04-01T09:10:00;9.70;99.90
43185;DHT22;28803;52.308;19.096;2023-04-01T09:34:55;12.70;99.90
43185;DHT22;28803;52.308;19.096;2023-04-01T09:37:51;12.90;99.90
43185;DHT22;28803;52.308;19.096;2023-04-01T09:40:35;13.00;99.90
43185;DHT22;28803;52.308;19.096;2023-04-01T10:00:07;11.20;99.90
43185;DHT22;28803;52.308;19.096;2023-04-01T10:14:12;10.40;99.90
43185;DHT22;28803;52.308;19.096;2023-04-01T10:33:41;9.60;99.90
43185;DHT22;28803;52.308;19.096;2023-04-01T10:39:38;9.70;99.90
43185;DHT22;28803;52.308;19.096;2023-04-01T10:48:12;9.60;99.90
43185;DHT22;28803;52.308;19.096;2023-04-01T10:56:42;9.90;99.90
43185;DHT22;28803;52.308;19.096;2023-04-01T11:23:13;10.00;99.90
43185;DHT22;28803;52.308;19.096;2023-04-01T11:28:34;9.50;99.90
43185;DHT22;28803;52.308;19.096;2023-04-01T11:39:29;9.00;99.90
43185;DHT22;28803;52.308;19.096;2023-04-01T11:45:17;9.00;99.90
43185;DHT22;28803;52.308;19.096;2023-04-01T11:48:18;9.00;99.90
43185;DHT22;28803;52.308;19.096;2023-04-01T11:50:58;9.00;99.90
43185;DHT22;28803;52.308;19.096;2023-04-01T12:04:46;9.10;99.90
43185;DHT22;28803;52.308;19.096;2023-04-01T12:07:43;9.10;99.90
43185;DHT22;28803;52.308;19.096;2023-04-01T12:10:55;9.00;99.90
43185;DHT22;28803;52.308;19.096;2023-04-01T12:22:53;9.30;99.90
43185;DHT22;28803;52.308;19.096;2023-04-01T12:28:15;9.50;99.90
43185;DHT22;28803;52.308;19.096;2023-04-01T12:52:50;9.40;99.90
43185;DHT22;28803;52.308;19.096;2023-04-01T12:55:41;9.30;99.90
43185;DHT22;28803;52.308;19.096;2023-04-01T12:58:37;9.20;99.90
43185;DHT22;28803;52.308;19.096;2023-04-01T13:01:27;9.10;99.90
43185;DHT22;28803;52.308;19.096;2023-04-01T13:07:19;9.00;99.90
43185;DHT22;28803;52.308;19.096;2023-04-01T13:10:05;9.00;99.90
43185;DHT22;28803;52.308;19.096;2023-04-01T13:26:58;8.60;99.90
43185;DHT22;28803;52.308;19.096;2023-04-01T13:40:40;8.40;99.90
43185;DHT22;28803;52.308;19.096;2023-04-01T13:43:34;8.40;99.90
43185;DHT22;28803;52.308;19.096;2023-04-01T13:46:12;8.40;99.90
43185;DHT22;28803;52.308;19.096;2023-04-01T13:51:21;8.40;99.90
43185;DHT22;28803;52.308;19.096;2023-04-01T13:54:25;8.30;99.90
43185;DHT22;28803;52.308;19.096;2023-04-01T14:08:26;8.10;99.90
43185;DHT22;28803;52.308;19.096;2023-04-01T14:13:53;8.00;99.90
43185;DHT22;28803;52.308;19.096;2023-04-01T14:19:47;8.00;99.90
43185;DHT22;28803;52.308;19.096;2023-04-01T14:31:40;7.90;99.90
43185;DHT22;28803;52.308;19.096;2023-04-01T14:37:19;7.90;99.90
43185;DHT22;28803;52.308;19.096;2023-04-01T14:52:05;7.70;99.90
43185;DHT22;28803;52.308;19.096;2023-04-01T14:54:41;7.70;99.90
43185;DHT22;28803;52.308;19.096;2023-04-01T14:57:16;7.70;99.90
43185;DHT22;28803;52.308;19.096;2023-04-01T15:05:39;7.60;99.90
43185;DHT22;28803;52.308;19.096;2023-04-01T15:08:26;7.50;99.90
43185;DHT22;28803;52.308;19.096;2023-04-01T15:11:26;7.50;99.90
43185;DHT22;28803;52.308;19.096;2023-04-01T15:23:09;7.40;99.90
43185;DHT22;28803;52.308;19.096;2023-04-01T15:36:34;7.40;99.90
43185;DHT22;28803;52.308;19.096;2023-04-01T15:50:11;7.40;99.90
43185;DHT22;28803;52.308;19.096;2023-04-01T15:55:57;7.30;99.90
43185;DHT22;28803;52.308;19.096;2023-04-01T15:58:35;7.20;99.90
43185;DHT22;28803;52.308;19.096;2023-04-01T16:06:37;7.10;99.90
43185;DHT22;28803;52.308;19.096;2023-04-01T16:23:42;6.80;99.90
43185;DHT22;28803;52.308;19.096;2023-04-01T16:31:51;6.70;99.90
43185;DHT22;28803;52.308;19.096;2023-04-01T16:37:05;6.60;99.90
43185;DHT22;28803;52.308;19.096;2023-04-01T16:51:23;6.50;99.90
43185;DHT22;28803;52.308;19.096;2023-04-01T16:54:28;6.50;99.90
43185;DHT22;28803;52.308;19.096;2023-04-01T16:57:02;6.50;99.90
43185;DHT22;28803;52.308;19.096;2023-04-01T16:59:46;6.50;99.90
43185;DHT22;28803;52.308;19.096;2023-04-01T17:02:17;6.40;99.90
43185;DHT22;28803;52.308;19.096;2023-04-01T17:13:23;6.30;99.90
43185;DHT22;28803;52.308;19.096;2023-04-01T17:16:24;6.30;99.90
43185;DHT22;28803;52.308;19.096;2023-04-01T17:27:40;6.10;99.90
43185;DHT22;28803;52.308;19.096;2023-04-01T17:33:14;6.00;99.90
43185;DHT22;28803;52.308;19.096;2023-04-01T17:36:33;5.90;99.90
43185;DHT22;28803;52.308;19.096;2023-04-01T17:38:46;5.90;99.90
43185;DHT22;28803;52.308;19.096;2023-04-01T17:41:29;5.80;99.90
43185;DHT22;28803;52.308;19.096;2023-04-01T17:44:03;5.80;99.90
43185;DHT22;28803;52.308;19.096;2023-04-01T17:52:28;5.80;99.90
43185;DHT22;28803;52.308;19.096;2023-04-01T17:57:56;5.60;99.90
43185;DHT22;28803;52.308;19.096;2023-04-01T18:14:20;5.40;99.90
43185;DHT22;28803;52.308;19.096;2023-04-01T18:17:02;5.30;99.90
43185;DHT22;28803;52.308;19.096;2023-04-01T18:22:47;5.30;99.90
43185;DHT22;28803;52.308;19.096;2023-04-01T18:27:56;5.30;99.90
43185;DHT22;28803;52.308;19.096;2023-04-01T18:30:32;5.30;99.90
43185;DHT22;28803;52.308;19.096;2023-04-01T18:33:23;5.30;99.90
43185;DHT22;28803;52.308;19.096;2023-04-01T18:36:14;5.30;99.90
43185;DHT22;28803;52.308;19.096;2023-04-01T18:39:03;5.30;99.90
43185;DHT22;28803;52.308;19.096;2023-04-01T18:44:25;5.30;99.90
43185;DHT22;28803;52.308;19.096;2023-04-01T18:50:21;5.20;99.90
43185;DHT22;28803;52.308;19.096;2023-04-01T18:52:56;5.20;99.90
43185;DHT22;28803;52.308;19.096;2023-04-01T18:55:47;5.10;99.90
43185;DHT22;28803;52.308;19.096;2023-04-01T19:01:14;5.00;99.90
43185;DHT22;28803;52.308;19.096;2023-04-01T19:06:43;4.90;99.90
43185;DHT22;28803;52.308;19.096;2023-04-01T19:09:31;4.90;99.90
43185;DHT22;28803;52.308;19.096;2023-04-01T19:12:27;4.90;99.90
43185;DHT22;28803;52.308;19.096;2023-04-01T19:20:34;4.80;99.90
43185;DHT22;28803;52.308;19.096;2023-04-01T19:23:21;4.80;99.90
43185;DHT22;28803;52.308;19.096;2023-04-01T19:26:04;4.80;99.90
43185;DHT22;28803;52.308;19.096;2023-04-01T19:28:53;4.80;99.90
43185;DHT22;28803;52.308;19.096;2023-04-01T19:37:44;4.60;99.90
43185;DHT22;28803;52.308;19.096;2023-04-01T19:40:20;4.60;99.90
43185;DHT22;28803;52.308;19.096;2023-04-01T19:43:29;4.50;99.90
43185;DHT22;28803;52.308;19.096;2023-04-01T19:45:58;4.40;99.90
43185;DHT22;28803;52.308;19.096;2023-04-01T19:49:00;4.40;99.90
43185;DHT22;28803;52.308;19.096;2023-04-01T19:56:50;4.40;99.90
43185;DHT22;28803;52.308;19.096;2023-04-01T20:04:54;4.30;99.90
43185;DHT22;28803;52.308;19.096;2023-04-01T20:07:49;4.30;99.90
43185;DHT22;28803;52.308;19.096;2023-04-01T20:10:37;4.30;99.90
43185;DHT22;28803;52.308;19.096;2023-04-01T20:16:01;4.40;99.90
43185;DHT22;28803;52.308;19.096;2023-04-01T20:18:54;4.40;99.90
43185;DHT22;28803;52.308;19.096;2023-04-01T20:21:41;4.30;99.90
43185;DHT22;28803;52.308;19.096;2023-04-01T20:24:21;4.30;99.90
43185;DHT22;28803;52.308;19.096;2023-04-01T20:27:08;4.20;99.90
43185;DHT22;28803;52.308;19.096;2023-04-01T20:29:56;4.20;99.90
43185;DHT22;28803;52.308;19.096;2023-04-01T20:32:39;4.30;99.90
43185;DHT22;28803;52.308;19.096;2023-04-01T20:35:50;4.30;99.90
43185;DHT22;28803;52.308;19.096;2023-04-01T20:44:12;4.10;99.90
43185;DHT22;28803;52.308;19.096;2023-04-01T20:47:00;4.10;99.90
43185;DHT22;28803;52.308;19.096;2023-04-01T20:52:18;4.00;99.90
43185;DHT22;28803;52.308;19.096;2023-04-01T20:55:19;4.10;99.90
43185;DHT22;28803;52.308;19.096;2023-04-01T21:03:58;4.00;99.90
43185;DHT22;28803;52.308;19.096;2023-04-01T21:14:41;4.00;99.90
43185;DHT22;28803;52.308;19.096;2023-04-01T21:23:05;3.90;99.90
43185;DHT22;28803;52.308;19.096;2023-04-01T21:28:30;3.90;99.90
43185;DHT22;28803;52.308;19.096;2023-04-01T21:31:22;3.90;99.90
43185;DHT22;28803;52.308;19.096;2023-04-01T21:39:20;3.90;99.90
43185;DHT22;28803;52.308;19.096;2023-04-01T21:53:31;3.80;99.90
43185;DHT22;28803;52.308;19.096;2023-04-01T22:04:47;3.70;99.90
43185;DHT22;28803;52.308;19.096;2023-04-01T22:07:21;3.70;99.90
43185;DHT22;28803;52.308;19.096;2023-04-01T22:13:03;3.60;99.90
43185;DHT22;28803;52.308;19.096;2023-04-01T22:18:19;3.70;99.90
43185;DHT22;28803;52.308;19.096;2023-04-01T22:31:47;3.70;99.90
43185;DHT22;28803;52.308;19.096;2023-04-01T22:37:13;3.60;99.90
43185;DHT22;28803;52.308;19.096;2023-04-01T22:42:47;3.60;99.90
43185;DHT22;28803;52.308;19.096;2023-04-01T22:51:14;3.50;99.90
43185;DHT22;28803;52.308;19.096;2023-04-01T22:54:04;3.50;99.90
43185;DHT22;28803;52.308;19.096;2023-04-01T22:56:50;3.50;99.90
43185;DHT22;28803;52.308;19.096;2023-04-01T22:59:23;3.40;99.90
43185;DHT22;28803;52.308;19.096;2023-04-01T23:01:55;3.50;99.90
43185;DHT22;28803;52.308;19.096;2023-04-01T23:04:28;3.50;99.90
43185;DHT22;28803;52.308;19.096;2023-04-01T23:07:02;3.50;99.90
43185;DHT22;28803;52.308;19.096;2023-04-01T23:09:33;3.50;99.90
43185;DHT22;28803;52.308;19.096;2023-04-01T23:12:09;3.50;99.90
43185;DHT22;28803;52.308;19.096;2023-04-01T23:14:49;3.50;99.90
43185;DHT22;28803;52.308;19.096;2023-04-01T23:25:45;3.40;99.90
43185;DHT22;28803;52.308;19.096;2023-04-01T23:31:00;3.40;99.90
43185;DHT22;28803;52.308;19.096;2023-04-01T23:33:29;3.40;99.90
43185;DHT22;28803;52.308;19.096;2023-04-01T23:36:17;3.40;99.90
43185;DHT22;28803;52.308;19.096;2023-04-01T23:38:48;3.40;99.90
43185;DHT22;28803;52.308;19.096;2023-04-01T23:44:15;3.40;99.90
43185;DHT22;28803;52.308;19.096;2023-04-01T23:46:45;3.40;99.90
43185;DHT22;28803;52.308;19.096;2023-04-01T23:49:30;3.40;99.90
43185;DHT22;28803;52.308;19.096;2023-04-01T23:52:26;3.30;99.90
43185;DHT22;28803;52.308;19.096;2023-04-01T23:55:02;3.40;99.90
43185;DHT22;28803;52.308;19.096;2023-04-01T23:57:32;3.30;99.90
